Doddridge, Arkansas
Current Conditions -  °F | °C
As of 5:53 PM on Friday 31 Oct 2014 (Local Time) from KTXK Reporting Station
Clear Clear  
Wind Chill: 62°   Ceiling: Unl
Heat Index: 62°   Visibility: 10mi
Dew Point: 38°   Wind: 8mph
Humidity: 41%   Direction: 350°N
Pressure: 30.26"   Gusts: NA
Location:  33.09°N, 93.91°W
Report Text: KTXK 312253Z 35007KT 10SM CLR 17/03 A3026 RMK AO2 SLP244 T01670033
Loading
Personal Weather Stations






























Interactive Weather Map
Tropical Storm Tracking
New forecast layout! Learn more

10-Day Weather Forecast

Advertisements
Track Severe Weather on mobile